Time;durP1;ratioP1;P1;durP2;ratioP2;P2;SDS_P1;SDS_P2;PMS_P1;PMS_P2;Temp;Humidity;BMP_temperature;BMP_pressure;BME280_temperature;BME280_humidity;BME280_pressure;Samples;Min_cycle;Max_cycle;Signal;HPM_P1;HPM_P2
2021/04/22 00:01:07;;;;;;;5.18;1.80;;;11.40;41.70;;;;;;1490684;39;20031;-52
2021/04/22 00:02:28;;;;;;;10.50;2.55;;;11.40;41.80;;;;;;1490930;39;20036;-52
2021/04/22 00:03:49;;;;;;;6.07;2.22;;;11.30;41.70;;;;;;1490814;39;20042;-50
2021/04/22 00:05:25;;;;;;;6.38;2.22;;;11.30;41.90;;;;;;1491303;39;20454;-52
2021/04/22 00:06:49;;;;;;;6.85;2.05;;;11.30;41.90;;;;;;1489129;39;20043;-50
2021/04/22 00:08:11;;;;;;;5.05;2.17;;;11.30;42.00;;;;;;1490409;39;20146;-53
2021/04/22 00:09:32;;;;;;;3.33;1.73;;;11.30;41.90;;;;;;1491251;39;20040;-54
2021/04/22 00:10:53;;;;;;;10.52;2.72;;;11.20;41.90;;;;;;1491188;39;20032;-53
2021/04/22 00:12:14;;;;;;;8.20;2.22;;;11.20;42.10;;;;;;1491625;39;20015;-53
2021/04/22 00:13:36;;;;;;;5.03;2.35;;;11.20;42.00;;;;;;1490977;39;20047;-53
2021/04/22 00:14:57;;;;;;;6.32;2.13;;;11.20;42.10;;;;;;1490233;39;20034;-53
2021/04/22 00:16:17;;;;;;;7.20;2.13;;;11.20;42.10;;;;;;1486660;40;20054;-49
2021/04/22 00:17:38;;;;;;;5.72;1.80;;;11.10;42.10;;;;;;1490005;39;20478;-54
2021/04/22 00:19:00;;;;;;;8.85;2.65;;;11.10;42.10;;;;;;1491509;39;20027;-52
2021/04/22 00:20:22;;;;;;;8.63;2.17;;;11.10;42.20;;;;;;1491707;39;20028;-51
2021/04/22 00:21:43;;;;;;;5.90;2.03;;;11.10;42.30;;;;;;1490544;39;20030;-53
2021/04/22 00:23:05;;;;;;;12.48;2.47;;;11.10;42.40;;;;;;1491091;39;20023;-53
2021/04/22 00:24:26;;;;;;;7.30;1.80;;;11.00;42.40;;;;;;1489006;39;20752;-51
2021/04/22 00:25:47;;;;;;;8.35;2.22;;;11.00;42.40;;;;;;1489785;39;20329;-54
2021/04/22 00:27:08;;;;;;;8.82;2.45;;;11.00;42.50;;;;;;1488310;39;20387;-52
2021/04/22 00:28:29;;;;;;;9.20;2.45;;;11.00;42.50;;;;;;1489351;39;20076;-52
2021/04/22 00:29:50;;;;;;;7.10;2.38;;;11.00;42.50;;;;;;1490221;39;20032;-51
2021/04/22 00:31:11;;;;;;;4.30;2.15;;;11.00;42.60;;;;;;1489341;39;20056;-54
2021/04/22 00:32:32;;;;;;;5.40;1.67;;;11.00;42.60;;;;;;1490978;39;20055;-52
2021/04/22 00:33:53;;;;;;;8.07;2.00;;;10.90;42.60;;;;;;1490932;39;20354;-54
2021/04/22 00:35:14;;;;;;;6.30;2.20;;;10.90;42.60;;;;;;1488844;39;20366;-53
2021/04/22 00:36:35;;;;;;;6.72;2.15;;;10.90;42.60;;;;;;1491151;39;20113;-53
2021/04/22 00:37:56;;;;;;;5.70;2.00;;;10.90;42.60;;;;;;1491574;39;20094;-53
2021/04/22 00:39:17;;;;;;;4.70;1.90;;;10.80;42.60;;;;;;1490982;39;20028;-53
2021/04/22 00:40:40;;;;;;;6.85;2.28;;;10.90;42.70;;;;;;1490520;39;20024;-55
2021/04/22 00:42:02;;;;;;;5.15;1.90;;;10.80;42.80;;;;;;1490856;39;20024;-55
2021/04/22 00:43:23;;;;;;;7.63;1.90;;;10.80;42.80;;;;;;1490780;39;20031;-53
2021/04/22 00:44:47;;;;;;;9.02;2.25;;;10.80;42.80;;;;;;1489528;39;20397;-52
2021/04/22 00:46:08;;;;;;;7.07;1.95;;;10.80;42.70;;;;;;1491146;39;20137;-52
2021/04/22 00:47:29;;;;;;;5.15;2.03;;;10.80;43.20;;;;;;1490391;39;20035;-55
2021/04/22 00:48:50;;;;;;;7.97;2.20;;;10.80;42.70;;;;;;1488850;39;20036;-52
2021/04/22 00:50:18;;;;;;;7.20;2.17;;;10.80;42.60;;;;;;1489692;39;20060;-53
2021/04/22 00:51:39;;;;;;;7.10;2.42;;;10.70;42.70;;;;;;1489021;39;20071;-54
2021/04/22 00:53:01;;;;;;;5.75;2.15;;;10.70;42.60;;;;;;1489519;39;20245;-55
2021/04/22 00:54:21;;;;;;;5.80;1.80;;;10.70;42.70;;;;;;1490614;39;20031;-52
2021/04/22 00:55:43;;;;;;;7.60;2.10;;;10.70;42.70;;;;;;1489058;39;20035;-51
2021/04/22 00:57:04;;;;;;;6.80;2.20;;;10.70;42.80;;;;;;1488973;39;20353;-52
2021/04/22 00:58:25;;;;;;;6.38;2.00;;;10.70;42.80;;;;;;1489524;39;20060;-51
2021/04/22 00:59:46;;;;;;;9.38;2.40;;;10.70;42.80;;;;;;1488084;39;20414;-53
2021/04/22 01:01:07;;;;;;;6.65;2.00;;;10.70;42.90;;;;;;1489224;39;20028;-53
2021/04/22 01:02:28;;;;;;;6.82;2.05;;;10.60;43.00;;;;;;1490271;39;20058;-54
2021/04/22 01:03:49;;;;;;;5.65;1.92;;;10.60;43.10;;;;;;1490996;39;20038;-52
2021/04/22 01:05:14;;;;;;;6.22;2.17;;;10.60;43.10;;;;;;1490809;39;20062;-55
2021/04/22 01:06:35;;;;;;;8.55;2.40;;;10.60;43.20;;;;;;1488696;39;20082;-55
2021/04/22 01:07:56;;;;;;;8.57;2.10;;;10.60;43.10;;;;;;1490884;39;20039;-56
2021/04/22 01:09:17;;;;;;;4.80;1.95;;;10.60;43.10;;;;;;1489776;39;20035;-53
2021/04/22 01:10:38;;;;;;;8.55;2.13;;;10.60;43.20;;;;;;1490084;39;20028;-53
2021/04/22 01:12:02;;;;;;;7.00;2.17;;;10.50;43.20;;;;;;1490523;39;20132;-54
2021/04/22 01:13:23;;;;;;;9.20;2.33;;;10.50;43.20;;;;;;1489144;39;20479;-56
2021/04/22 01:14:43;;;;;;;6.75;2.53;;;10.50;43.20;;;;;;1489773;39;20105;-54
2021/04/22 01:16:05;;;;;;;8.27;2.28;;;10.50;43.40;;;;;;1491137;39;20044;-56
2021/04/22 01:17:26;;;;;;;8.48;2.30;;;10.50;43.40;;;;;;1488381;39;20027;-53
2021/04/22 01:18:47;;;;;;;4.93;2.35;;;10.50;43.50;;;;;;1488717;39;20039;-53
2021/04/22 01:20:15;;;;;;;5.75;2.15;;;10.50;43.50;;;;;;1490901;39;20038;-53
2021/04/22 01:21:36;;;;;;;8.70;2.13;;;10.50;43.90;;;;;;1490913;39;20035;-53
2021/04/22 01:22:59;;;;;;;8.00;2.00;;;10.40;43.60;;;;;;1491091;39;20046;-53
2021/04/22 01:24:21;;;;;;;4.22;1.92;;;10.40;43.80;;;;;;1490779;39;20048;-52
2021/04/22 01:25:44;;;;;;;6.82;2.03;;;10.40;43.80;;;;;;1490036;39;20023;-55
2021/04/22 01:27:06;;;;;;;11.23;2.50;;;10.40;43.80;;;;;;1490663;39;20039;-53
2021/04/22 01:28:27;;;;;;;6.90;2.53;;;10.40;43.90;;;;;;1490420;39;20366;-51
2021/04/22 01:29:48;;;;;;;7.80;2.35;;;10.40;43.80;;;;;;1490294;39;20357;-54
2021/04/22 01:31:09;;;;;;;6.97;2.15;;;10.40;43.90;;;;;;1489753;39;20035;-52
2021/04/22 01:32:29;;;;;;;4.75;2.15;;;10.40;43.90;;;;;;1490519;39;20038;-54
2021/04/22 01:33:57;;;;;;;5.95;2.15;;;10.40;44.00;;;;;;1488846;39;20116;-51
2021/04/22 01:35:23;;;;;;;7.70;2.08;;;10.40;44.00;;;;;;1488875;39;20437;-52
2021/04/22 01:36:45;;;;;;;6.80;2.78;;;10.40;44.20;;;;;;1488927;39;20591;-52
2021/04/22 01:38:08;;;;;;;6.55;2.40;;;10.30;44.20;;;;;;1490964;39;20047;-50
2021/04/22 01:39:29;;;;;;;6.03;2.30;;;10.30;44.20;;;;;;1490405;39;20084;-51
2021/04/22 01:40:52;;;;;;;7.95;2.63;;;10.30;44.10;;;;;;1490498;39;20170;-53
2021/04/22 01:42:13;;;;;;;5.63;2.13;;;10.30;44.30;;;;;;1490798;39;20032;-54
2021/04/22 01:43:35;;;;;;;9.75;2.50;;;10.30;44.30;;;;;;1490324;39;20028;-55
2021/04/22 01:44:55;;;;;;;7.63;2.70;;;10.30;44.30;;;;;;1491099;39;20038;-52
2021/04/22 01:46:16;;;;;;;7.38;2.35;;;10.30;44.30;;;;;;1491155;39;20359;-52
2021/04/22 01:47:37;;;;;;;7.45;2.60;;;10.30;44.30;;;;;;1490700;39;20039;-51
2021/04/22 01:48:58;;;;;;;6.43;2.05;;;10.30;44.40;;;;;;1490853;39;20035;-52
2021/04/22 01:50:27;;;;;;;11.30;2.90;;;10.30;44.40;;;;;;1488986;39;20019;-54
2021/04/22 01:51:48;;;;;;;7.15;2.53;;;10.30;44.50;;;;;;1490112;39;20039;-52
2021/04/22 01:53:10;;;;;;;8.07;2.55;;;10.30;44.60;;;;;;1490474;39;20020;-51
2021/04/22 01:54:31;;;;;;;9.02;2.42;;;10.30;44.50;;;;;;1489777;39;20047;-52
2021/04/22 01:55:52;;;;;;;6.40;2.22;;;10.20;44.50;;;;;;1488240;39;20024;-54
2021/04/22 01:57:13;;;;;;;9.73;2.47;;;10.20;44.40;;;;;;1490190;39;20028;-53
2021/04/22 01:58:34;;;;;;;7.60;2.67;;;10.20;44.40;;;;;;1491096;39;20028;-53
2021/04/22 01:59:55;;;;;;;7.57;2.50;;;10.20;44.50;;;;;;1489360;39;20043;-51
2021/04/22 02:01:16;;;;;;;7.10;2.42;;;10.20;44.50;;;;;;1490944;39;20033;-51
2021/04/22 02:02:36;;;;;;;6.45;2.13;;;10.20;44.60;;;;;;1489413;39;20020;-54
2021/04/22 02:03:57;;;;;;;4.45;2.33;;;10.20;44.60;;;;;;1490929;39;20217;-53
2021/04/22 02:05:20;;;;;;;9.25;2.22;;;10.20;44.60;;;;;;1489564;39;20020;-54
2021/04/22 02:06:41;;;;;;;5.60;2.50;;;10.10;44.70;;;;;;1490292;39;20091;-51
2021/04/22 02:08:03;;;;;;;8.75;2.45;;;10.10;44.80;;;;;;1489939;39;20044;-55
2021/04/22 02:09:24;;;;;;;4.72;2.08;;;10.10;44.90;;;;;;1490834;39;20024;-52
2021/04/22 02:10:46;;;;;;;7.07;2.60;;;10.10;45.00;;;;;;1490735;39;20348;-54
2021/04/22 02:12:07;;;;;;;6.95;2.38;;;10.10;44.90;;;;;;1490265;39;20035;-52
2021/04/22 02:13:29;;;;;;;9.50;2.58;;;10.10;44.90;;;;;;1490104;39;20451;-53
2021/04/22 02:14:49;;;;;;;5.38;2.30;;;10.10;44.80;;;;;;1490428;39;20111;-54
2021/04/22 02:16:10;;;;;;;7.22;2.45;;;10.00;44.70;;;;;;1488595;39;20082;-53
2021/04/22 02:17:31;;;;;;;4.95;2.50;;;10.00;44.70;;;;;;1489566;39;20032;-52
2021/04/22 02:18:52;;;;;;;6.88;2.55;;;10.00;44.80;;;;;;1490746;39;20063;-51
2021/04/22 02:20:15;;;;;;;12.27;2.78;;;10.00;44.80;;;;;;1490263;39;20353;-52
2021/04/22 02:21:36;;;;;;;7.57;2.95;;;10.00;44.90;;;;;;1489066;39;20033;-52
2021/04/22 02:22:57;;;;;;;8.10;2.55;;;10.00;45.00;;;;;;1490869;39;20035;-55
2021/04/22 02:24:18;;;;;;;5.47;2.47;;;10.00;45.00;;;;;;1490883;39;20023;-54
2021/04/22 02:25:40;;;;;;;6.07;2.58;;;10.00;45.10;;;;;;1491026;39;20042;-54
2021/04/22 02:27:01;;;;;;;10.25;2.53;;;10.00;45.10;;;;;;1490375;39;20388;-54
2021/04/22 02:28:22;;;;;;;11.75;2.88;;;10.00;45.20;;;;;;1489979;39;20028;-54
2021/04/22 02:29:43;;;;;;;8.32;2.70;;;9.90;45.00;;;;;;1490156;39;20039;-52
2021/04/22 02:31:04;;;;;;;8.52;2.47;;;9.90;45.00;;;;;;1489984;39;20106;-54
2021/04/22 02:32:25;;;;;;;13.50;3.17;;;9.90;45.10;;;;;;1485857;39;20431;-50
2021/04/22 02:33:46;;;;;;;9.02;3.75;;;9.90;45.10;;;;;;1488892;39;20157;-52
2021/04/22 02:35:10;;;;;;;7.68;2.60;;;9.90;45.10;;;;;;1491363;39;20043;-51
2021/04/22 02:36:30;;;;;;;9.32;2.65;;;9.90;45.20;;;;;;1490194;39;20028;-50
2021/04/22 02:37:52;;;;;;;8.70;2.70;;;9.90;45.10;;;;;;1490576;39;20041;-50
2021/04/22 02:39:14;;;;;;;6.30;2.30;;;9.80;45.30;;;;;;1488838;39;20028;-51
2021/04/22 02:40:37;;;;;;;6.60;2.33;;;9.80;45.20;;;;;;1490424;39;20028;-50
2021/04/22 02:41:58;;;;;;;6.03;2.47;;;9.80;45.30;;;;;;1490555;39;20044;-52
2021/04/22 02:43:20;;;;;;;10.77;3.08;;;9.80;45.40;;;;;;1488609;39;20039;-52
2021/04/22 02:44:41;;;;;;;7.88;2.72;;;9.80;45.60;;;;;;1490937;39;20024;-52
2021/04/22 02:46:02;;;;;;;5.60;2.20;;;9.80;45.50;;;;;;1490043;39;20354;-51
2021/04/22 02:47:23;;;;;;;9.63;3.05;;;9.80;45.50;;;;;;1490422;39;20037;-55
2021/04/22 02:48:44;;;;;;;5.82;2.38;;;9.80;45.50;;;;;;1490613;39;20048;-52
2021/04/22 02:50:08;;;;;;;7.13;2.58;;;9.70;45.50;;;;;;1490468;39;20028;-51
2021/04/22 02:51:29;;;;;;;8.68;2.90;;;9.70;45.80;;;;;;1490063;39;20030;-51
2021/04/22 02:52:50;;;;;;;7.45;2.75;;;9.70;45.70;;;;;;1490265;39;20225;-54
2021/04/22 02:54:11;;;;;;;6.45;2.78;;;9.70;45.70;;;;;;1490329;39;20055;-53
2021/04/22 02:55:32;;;;;;;7.85;3.20;;;9.70;45.80;;;;;;1491639;39;20100;-52
2021/04/22 02:56:53;;;;;;;8.07;2.53;;;9.70;45.90;;;;;;1489904;39;20067;-52
2021/04/22 02:58:15;;;;;;;8.25;2.55;;;9.70;45.80;;;;;;1491589;39;20053;-54
2021/04/22 02:59:36;;;;;;;9.93;2.53;;;9.70;45.80;;;;;;1488896;39;20048;-55
2021/04/22 03:00:58;;;;;;;8.50;2.42;;;9.70;45.80;;;;;;1488864;39;20348;-51
2021/04/22 03:02:18;;;;;;;4.90;2.10;;;9.70;45.90;;;;;;1491220;39;20367;-53
2021/04/22 03:03:39;;;;;;;11.65;2.50;;;9.70;45.90;;;;;;1490727;39;20140;-54
2021/04/22 03:05:00;;;;;;;8.27;2.55;;;9.60;45.90;;;;;;1491051;39;20099;-50
2021/04/22 03:06:21;;;;;;;4.43;2.20;;;9.70;46.10;;;;;;1490780;39;20132;-54
2021/04/22 03:07:42;;;;;;;10.07;3.05;;;9.70;46.00;;;;;;1489931;39;20028;-51
2021/04/22 03:09:03;;;;;;;9.20;2.70;;;9.60;45.90;;;;;;1491234;39;20042;-54
2021/04/22 03:10:26;;;;;;;7.35;2.50;;;9.60;45.90;;;;;;1487159;39;20037;-52
2021/04/22 03:11:47;;;;;;;7.82;2.67;;;9.60;46.00;;;;;;1485862;40;20044;-51
2021/04/22 03:13:08;;;;;;;6.60;2.30;;;9.60;46.00;;;;;;1489209;39;20344;-51
2021/04/22 03:14:29;;;;;;;10.65;3.08;;;9.60;46.10;;;;;;1490804;39;20016;-54
2021/04/22 03:15:50;;;;;;;9.32;2.70;;;9.60;46.20;;;;;;1491315;39;20112;-52
2021/04/22 03:17:12;;;;;;;10.43;2.72;;;9.60;46.20;;;;;;1491757;39;20039;-52
2021/04/22 03:18:33;;;;;;;9.02;3.15;;;9.60;46.30;;;;;;1489534;39;20063;-54
2021/04/22 03:19:54;;;;;;;6.03;2.92;;;9.60;46.40;;;;;;1490529;39;20107;-53
2021/04/22 03:21:15;;;;;;;6.70;2.80;;;9.60;46.30;;;;;;1490311;39;20028;-52
2021/04/22 03:22:35;;;;;;;9.95;2.42;;;9.60;46.20;;;;;;1490668;39;20031;-52
2021/04/22 03:23:56;;;;;;;7.85;2.47;;;9.60;46.20;;;;;;1491407;39;20027;-54
2021/04/22 03:25:20;;;;;;;9.77;2.53;;;9.60;46.10;;;;;;1487709;39;20040;-56
2021/04/22 03:26:41;;;;;;;5.78;2.25;;;9.60;46.20;;;;;;1490547;39;20047;-53
2021/04/22 03:28:03;;;;;;;9.20;2.78;;;9.60;46.20;;;;;;1485497;40;20039;-53
2021/04/22 03:29:24;;;;;;;9.38;3.45;;;9.50;46.20;;;;;;1489442;39;20361;-52
2021/04/22 03:30:45;;;;;;;8.43;2.88;;;9.50;46.10;;;;;;1490600;39;20028;-54
2021/04/22 03:32:06;;;;;;;8.27;2.70;;;9.50;46.00;;;;;;1490660;39;20476;-52
2021/04/22 03:33:27;;;;;;;9.65;3.25;;;9.50;46.00;;;;;;1491293;39;20036;-54
2021/04/22 03:34:48;;;;;;;9.80;3.10;;;9.50;46.50;;;;;;1490593;39;20036;-53
2021/04/22 03:36:09;;;;;;;8.75;3.20;;;9.50;46.00;;;;;;1490526;39;20023;-56
2021/04/22 03:37:31;;;;;;;8.43;2.92;;;9.50;45.90;;;;;;1489551;39;20346;-54
2021/04/22 03:38:54;;;;;;;11.65;3.20;;;9.50;46.00;;;;;;1490054;39;20074;-54
2021/04/22 03:40:16;;;;;;;10.60;3.33;;;9.50;46.00;;;;;;1489418;39;20337;-54
2021/04/22 03:41:37;;;;;;;5.88;2.85;;;9.40;46.00;;;;;;1490671;39;20348;-55
2021/04/22 03:42:58;;;;;;;9.93;3.25;;;9.40;46.00;;;;;;1490443;39;20032;-52
2021/04/22 03:44:19;;;;;;;7.85;2.85;;;9.40;46.10;;;;;;1490721;39;20028;-50
2021/04/22 03:45:40;;;;;;;7.75;3.20;;;9.40;46.20;;;;;;1489174;39;20057;-51
2021/04/22 03:47:01;;;;;;;9.05;3.00;;;9.40;46.30;;;;;;1490797;39;20116;-54
2021/04/22 03:48:21;;;;;;;8.43;2.72;;;9.40;46.30;;;;;;1490013;39;20030;-54
2021/04/22 03:49:43;;;;;;;10.40;3.22;;;9.30;46.30;;;;;;1490839;39;20279;-52
2021/04/22 03:51:04;;;;;;;9.30;3.03;;;9.40;46.40;;;;;;1489924;39;20039;-56
2021/04/22 03:52:25;;;;;;;10.32;3.17;;;9.30;46.40;;;;;;1489235;39;20022;-52
2021/04/22 03:53:46;;;;;;;7.63;3.13;;;9.30;46.50;;;;;;1489157;39;20069;-53
2021/04/22 03:55:09;;;;;;;7.93;3.17;;;9.30;46.40;;;;;;1489902;39;20043;-53
2021/04/22 03:56:30;;;;;;;10.38;3.47;;;9.30;46.50;;;;;;1490583;39;20427;-53
2021/04/22 03:57:51;;;;;;;8.23;3.25;;;9.20;46.50;;;;;;1489867;39;20369;-51
2021/04/22 03:59:12;;;;;;;7.53;2.40;;;9.20;46.60;;;;;;1490246;39;20044;-54
2021/04/22 04:00:33;;;;;;;14.35;2.83;;;9.20;46.60;;;;;;1490746;39;20236;-52
2021/04/22 04:01:54;;;;;;;7.65;3.20;;;9.20;46.70;;;;;;1488895;39;20035;-54
2021/04/22 04:03:15;;;;;;;8.38;3.10;;;9.20;46.70;;;;;;1488248;39;20337;-53
2021/04/22 04:04:36;;;;;;;9.63;2.88;;;9.20;46.90;;;;;;1490636;39;20092;-55
2021/04/22 04:05:57;;;;;;;8.63;2.90;;;9.20;46.80;;;;;;1488383;39;20024;-53
2021/04/22 04:07:18;;;;;;;9.25;2.60;;;9.20;46.80;;;;;;1491391;39;20417;-52
2021/04/22 04:08:38;;;;;;;10.60;3.70;;;9.20;46.90;;;;;;1486398;40;20032;-51
2021/04/22 04:10:00;;;;;;;10.23;3.25;;;9.20;46.90;;;;;;1490162;39;20385;-51
2021/04/22 04:11:21;;;;;;;9.57;3.10;;;9.20;46.80;;;;;;1488081;39;20039;-52
2021/04/22 04:12:42;;;;;;;8.98;2.95;;;9.20;46.90;;;;;;1490189;39;20311;-49
2021/04/22 04:14:03;;;;;;;9.35;2.95;;;9.20;47.00;;;;;;1489929;39;20090;-55
2021/04/22 04:15:24;;;;;;;10.27;3.33;;;9.10;46.90;;;;;;1491059;39;20100;-54
2021/04/22 04:16:45;;;;;;;12.05;3.72;;;9.10;46.90;;;;;;1490619;39;20027;-53
2021/04/22 04:18:06;;;;;;;7.18;2.67;;;9.10;47.50;;;;;;1490438;39;20032;-52
2021/04/22 04:19:27;;;;;;;10.10;3.30;;;9.10;46.90;;;;;;1490880;39;20258;-53
2021/04/22 04:20:48;;;;;;;10.65;3.97;;;9.10;46.90;;;;;;1489457;39;20419;-53
2021/04/22 04:22:09;;;;;;;7.75;3.08;;;9.10;47.00;;;;;;1488755;39;20030;-52
2021/04/22 04:23:30;;;;;;;8.95;3.10;;;9.10;47.10;;;;;;1490933;39;20031;-53
2021/04/22 04:24:51;;;;;;;8.38;3.28;;;9.10;47.10;;;;;;1490789;39;20035;-53
2021/04/22 04:26:12;;;;;;;6.05;2.80;;;9.10;47.10;;;;;;1490449;39;20032;-50
2021/04/22 04:27:33;;;;;;;10.15;2.95;;;9.10;47.10;;;;;;1491191;39;20093;-53
2021/04/22 04:28:54;;;;;;;8.98;3.75;;;9.10;47.10;;;;;;1486774;40;20039;-51
2021/04/22 04:30:17;;;;;;;6.68;3.03;;;9.10;47.10;;;;;;1489329;39;20019;-52
2021/04/22 04:31:38;;;;;;;9.13;3.17;;;9.00;47.10;;;;;;1488528;39;20038;-51
2021/04/22 04:33:00;;;;;;;10.05;3.33;;;9.00;47.10;;;;;;1488719;39;20323;-52
2021/04/22 04:34:21;;;;;;;8.23;3.50;;;9.10;47.20;;;;;;1490500;39;20296;-54
2021/04/22 04:35:42;;;;;;;7.93;2.83;;;9.00;47.20;;;;;;1489783;39;20049;-50
2021/04/22 04:37:04;;;;;;;11.75;2.90;;;9.00;47.20;;;;;;1491200;39;20129;-51
2021/04/22 04:38:25;;;;;;;8.85;3.55;;;9.10;47.20;;;;;;1489398;39;20036;-54
2021/04/22 04:39:46;;;;;;;8.13;3.75;;;9.00;47.30;;;;;;1490974;39;20151;-51
2021/04/22 04:41:07;;;;;;;11.85;3.85;;;9.00;47.40;;;;;;1490627;39;20360;-51
2021/04/22 04:42:27;;;;;;;9.20;3.30;;;9.00;47.30;;;;;;1489783;39;20408;-54
2021/04/22 04:43:48;;;;;;;8.88;3.10;;;9.00;47.30;;;;;;1488299;39;20073;-51
2021/04/22 04:45:12;;;;;;;10.48;3.70;;;9.00;47.40;;;;;;1490578;39;20116;-55
2021/04/22 04:46:33;;;;;;;12.38;3.92;;;9.00;47.50;;;;;;1489516;39;20079;-53
2021/04/22 04:47:54;;;;;;;6.97;3.42;;;8.90;47.50;;;;;;1489482;39;20039;-52
2021/04/22 04:49:15;;;;;;;7.93;3.15;;;9.00;47.50;;;;;;1489738;39;20028;-53
2021/04/22 04:50:36;;;;;;;9.43;3.60;;;8.90;47.50;;;;;;1491090;39;20040;-54
2021/04/22 04:51:57;;;;;;;10.38;3.33;;;9.00;47.70;;;;;;1491168;39;20044;-51
2021/04/22 04:53:18;;;;;;;10.07;3.40;;;8.90;47.80;;;;;;1488090;39;20024;-52
2021/04/22 04:54:39;;;;;;;9.95;3.80;;;8.90;47.70;;;;;;1490348;39;20048;-53
2021/04/22 04:56:00;;;;;;;12.10;3.75;;;9.00;47.80;;;;;;1489418;39;20036;-52
2021/04/22 04:57:21;;;;;;;10.63;4.10;;;8.90;47.80;;;;;;1484695;40;20028;-50
2021/04/22 04:58:41;;;;;;;7.53;3.25;;;8.90;47.80;;;;;;1489008;39;20031;-54
2021/04/22 05:00:08;;;;;;;9.65;3.78;;;8.90;47.70;;;;;;1489609;39;20035;-53
2021/04/22 05:01:29;;;;;;;8.05;3.67;;;8.90;47.80;;;;;;1490595;39;20028;-51
2021/04/22 05:02:51;;;;;;;6.75;3.13;;;8.90;47.70;;;;;;1489031;39;20266;-55
2021/04/22 05:04:12;;;;;;;8.88;3.42;;;8.90;47.70;;;;;;1490611;39;20082;-51
2021/04/22 05:05:32;;;;;;;13.85;4.03;;;8.90;47.70;;;;;;1490838;39;20286;-54
2021/04/22 05:06:53;;;;;;;12.93;3.78;;;8.90;47.80;;;;;;1490541;39;20058;-52
2021/04/22 05:08:14;;;;;;;7.10;3.30;;;8.90;47.80;;;;;;1490919;39;20020;-49
2021/04/22 05:09:35;;;;;;;10.38;3.22;;;9.00;47.90;;;;;;1490073;39;20647;-53
2021/04/22 05:10:56;;;;;;;14.63;4.32;;;9.00;47.90;;;;;;1490874;39;20405;-51
2021/04/22 05:12:17;;;;;;;14.35;4.07;;;9.00;47.90;;;;;;1490199;39;20031;-51
2021/04/22 05:13:38;;;;;;;10.57;3.70;;;9.00;47.90;;;;;;1489106;39;20039;-52
2021/04/22 05:14:59;;;;;;;14.70;3.90;;;8.90;47.80;;;;;;1490926;39;20108;-52
2021/04/22 05:16:20;;;;;;;9.80;3.75;;;9.00;47.90;;;;;;1489867;39;20035;-50
2021/04/22 05:17:41;;;;;;;10.60;4.15;;;9.00;47.90;;;;;;1489100;39;20038;-51
2021/04/22 05:19:03;;;;;;;8.82;3.92;;;9.00;47.90;;;;;;1490607;39;20131;-54
2021/04/22 05:20:24;;;;;;;7.85;3.35;;;9.00;47.90;;;;;;1491404;39;20042;-53
2021/04/22 05:21:44;;;;;;;11.27;4.07;;;9.00;48.00;;;;;;1488607;39;20044;-53
2021/04/22 05:23:05;;;;;;;8.40;3.55;;;9.00;48.00;;;;;;1490021;39;20108;-53
2021/04/22 05:24:26;;;;;;;9.82;4.15;;;9.00;48.10;;;;;;1490252;39;20039;-52
2021/04/22 05:25:49;;;;;;;9.88;3.83;;;9.00;48.10;;;;;;1489320;39;20036;-54
2021/04/22 05:27:10;;;;;;;10.18;4.15;;;9.00;48.20;;;;;;1490864;39;20067;-54
2021/04/22 05:28:30;;;;;;;8.48;3.80;;;9.00;48.10;;;;;;1489890;39;20042;-53
2021/04/22 05:29:52;;;;;;;8.13;3.72;;;9.00;48.10;;;;;;1490629;39;20145;-53
2021/04/22 05:31:14;;;;;;;12.68;4.25;;;9.00;48.10;;;;;;1490563;39;20032;-51
2021/04/22 05:32:35;;;;;;;8.25;3.65;;;9.00;48.10;;;;;;1490974;39;20043;-56
2021/04/22 05:33:56;;;;;;;10.27;4.13;;;9.10;48.20;;;;;;1490308;39;20071;-54
2021/04/22 05:35:17;;;;;;;12.63;3.53;;;9.10;48.20;;;;;;1490225;39;20321;-51
2021/04/22 05:36:38;;;;;;;10.00;4.45;;;9.10;48.20;;;;;;1489816;39;20039;-52
2021/04/22 05:37:59;;;;;;;10.00;4.43;;;9.10;48.50;;;;;;1490535;39;20395;-53
2021/04/22 05:39:22;;;;;;;13.43;4.00;;;9.10;48.30;;;;;;1489962;39;20124;-54
2021/04/22 05:40:43;;;;;;;13.68;4.05;;;9.10;48.40;;;;;;1491244;39;20276;-55
2021/04/22 05:42:04;;;;;;;11.32;4.22;;;9.10;48.40;;;;;;1490641;39;20030;-53
2021/04/22 05:43:25;;;;;;;9.98;3.85;;;9.20;48.50;;;;;;1489809;39;20039;-52
2021/04/22 05:44:46;;;;;;;11.30;4.15;;;9.20;48.50;;;;;;1490675;39;20042;-52
2021/04/22 05:46:07;;;;;;;10.93;3.90;;;9.20;48.50;;;;;;1490256;39;20028;-50
2021/04/22 05:47:28;;;;;;;8.65;3.92;;;9.20;48.60;;;;;;1489432;39;20048;-51
2021/04/22 05:48:49;;;;;;;9.40;3.97;;;9.20;48.60;;;;;;1491043;39;20032;-52
2021/04/22 05:50:11;;;;;;;12.40;3.70;;;9.20;48.60;;;;;;1490839;39;20055;-53
2021/04/22 05:51:31;;;;;;;11.38;4.30;;;9.30;48.70;;;;;;1490150;39;20136;-51
2021/04/22 05:52:52;;;;;;;11.88;4.13;;;9.30;48.70;;;;;;1490887;39;20022;-52
2021/04/22 05:54:13;;;;;;;13.05;5.03;;;9.30;48.70;;;;;;1491129;39;20032;-53
2021/04/22 05:55:34;;;;;;;14.50;4.70;;;9.30;48.70;;;;;;1489833;39;20024;-54
2021/04/22 05:56:55;;;;;;;10.98;4.18;;;9.30;48.70;;;;;;1488116;39;20035;-53
2021/04/22 05:58:16;;;;;;;8.77;4.45;;;9.40;48.80;;;;;;1489903;39;20020;-53
2021/04/22 05:59:37;;;;;;;9.57;4.65;;;9.30;48.80;;;;;;1491004;39;20030;-52
2021/04/22 06:00:58;;;;;;;11.32;4.20;;;9.40;48.80;;;;;;1489813;39;20039;-53
2021/04/22 06:02:19;;;;;;;11.25;4.22;;;9.40;48.80;;;;;;1490921;39;20556;-53
2021/04/22 06:03:40;;;;;;;16.88;4.85;;;9.40;48.80;;;;;;1489251;39;20118;-51
2021/04/22 06:05:01;;;;;;;11.32;4.28;;;9.40;48.80;;;;;;1490374;39;20027;-54
2021/04/22 06:06:22;;;;;;;8.73;4.32;;;9.50;48.90;;;;;;1487920;39;20029;-52
2021/04/22 06:07:43;;;;;;;8.52;4.43;;;9.50;48.90;;;;;;1490301;39;20348;-54
2021/04/22 06:09:04;;;;;;;8.18;4.20;;;9.50;48.90;;;;;;1489038;39;20088;-53
2021/04/22 06:10:25;;;;;;;10.43;4.40;;;9.60;49.00;;;;;;1491054;39;20040;-52
2021/04/22 06:11:46;;;;;;;12.35;5.05;;;9.60;48.90;;;;;;1488998;39;20450;-52
2021/04/22 06:13:08;;;;;;;11.98;4.65;;;9.60;48.90;;;;;;1489728;39;20031;-52
2021/04/22 06:14:29;;;;;;;11.05;4.68;;;9.60;48.90;;;;;;1489061;39;20035;-52
2021/04/22 06:15:50;;;;;;;13.57;4.00;;;9.70;48.90;;;;;;1490670;39;20024;-55
2021/04/22 06:17:11;;;;;;;11.13;4.38;;;9.70;49.00;;;;;;1491139;39;20035;-53
2021/04/22 06:18:32;;;;;;;9.55;4.20;;;9.70;49.10;;;;;;1490117;39;20027;-51
2021/04/22 06:19:53;;;;;;;8.15;4.07;;;9.70;49.20;;;;;;1490107;39;20040;-51
2021/04/22 06:21:14;;;;;;;11.85;4.15;;;9.80;49.10;;;;;;1486883;39;20308;-49
2021/04/22 06:22:35;;;;;;;10.95;4.43;;;9.80;49.00;;;;;;1487176;39;20392;-53
2021/04/22 06:23:56;;;;;;;9.05;3.63;;;9.90;49.00;;;;;;1488807;39;20031;-52
2021/04/22 06:25:21;;;;;;;10.43;4.20;;;9.90;48.90;;;;;;1489176;39;20031;-52
2021/04/22 06:26:43;;;;;;;10.43;4.80;;;9.90;49.00;;;;;;1489224;39;20264;-51
2021/04/22 06:28:05;;;;;;;11.43;4.63;;;9.90;48.80;;;;;;1485501;40;20090;-52
2021/04/22 06:29:26;;;;;;;9.65;4.32;;;9.90;48.70;;;;;;1489246;39;20016;-51
2021/04/22 06:30:47;;;;;;;11.55;4.10;;;10.00;48.80;;;;;;1489737;39;20035;-54
2021/04/22 06:32:09;;;;;;;17.45;4.78;;;10.00;48.80;;;;;;1491432;39;20048;-53
2021/04/22 06:33:30;;;;;;;14.25;4.50;;;10.00;48.60;;;;;;1490293;39;20031;-54
2021/04/22 06:34:51;;;;;;;11.82;4.50;;;10.10;48.60;;;;;;1491232;39;20591;-54
2021/04/22 06:36:13;;;;;;;12.88;4.28;;;10.10;48.60;;;;;;1490047;39;20053;-51
2021/04/22 06:37:34;;;;;;;8.50;4.25;;;10.10;48.60;;;;;;1492095;39;20787;-52
2021/04/22 06:38:55;;;;;;;8.95;4.40;;;10.10;48.60;;;;;;1491375;39;20039;-53
2021/04/22 06:40:19;;;;;;;10.05;4.60;;;10.20;48.60;;;;;;1490129;39;20258;-50
2021/04/22 06:41:40;;;;;;;12.55;4.65;;;10.20;48.50;;;;;;1488035;39;20047;-54
2021/04/22 06:43:02;;;;;;;10.45;4.40;;;10.20;48.40;;;;;;1489867;39;20028;-54
2021/04/22 06:44:22;;;;;;;9.00;4.47;;;10.20;48.50;;;;;;1489773;39;20276;-53
2021/04/22 06:45:45;;;;;;;10.75;4.20;;;10.30;48.50;;;;;;1490899;39;20085;-51
2021/04/22 06:47:06;;;;;;;10.75;4.05;;;10.30;48.50;;;;;;1489347;39;20056;-52
2021/04/22 06:48:27;;;;;;;10.32;4.20;;;10.30;48.40;;;;;;1489632;39;20262;-51
2021/04/22 06:49:49;;;;;;;10.40;4.28;;;10.40;48.30;;;;;;1490921;39;20046;-52
2021/04/22 06:51:10;;;;;;;13.15;3.90;;;10.40;48.10;;;;;;1490498;39;20036;-50
2021/04/22 06:52:30;;;;;;;9.18;3.63;;;10.40;47.90;;;;;;1490949;39;20023;-53
2021/04/22 06:53:52;;;;;;;14.02;4.30;;;10.40;47.80;;;;;;1489002;39;20035;-51
2021/04/22 06:55:20;;;;;;;11.13;4.10;;;10.50;47.80;;;;;;1489269;39;20372;-53
2021/04/22 06:56:42;;;;;;;12.80;3.65;;;10.50;47.80;;;;;;1488985;39;20184;-52
2021/04/22 06:58:05;;;;;;;10.43;3.78;;;10.50;47.80;;;;;;1490155;39;20027;-52
2021/04/22 06:59:27;;;;;;;8.90;3.63;;;10.60;47.90;;;;;;1489603;39;20024;-50
2021/04/22 07:00:47;;;;;;;10.15;3.55;;;10.60;47.90;;;;;;1490769;39;20040;-51
2021/04/22 07:02:09;;;;;;;9.70;3.75;;;10.60;47.80;;;;;;1490741;39;20030;-53
2021/04/22 07:03:30;;;;;;;12.02;3.53;;;10.60;47.80;;;;;;1488520;39;20036;-52
2021/04/22 07:04:51;;;;;;;8.88;3.47;;;10.70;47.70;;;;;;1488782;39;20246;-53
2021/04/22 07:06:12;;;;;;;7.65;2.88;;;10.70;47.50;;;;;;1490403;39;20035;-50